createdAt,value
2018-12-11T00:00:31.938Z,1.80
2018-12-11T00:01:31.923Z,2.20
2018-12-11T00:02:31.918Z,1.80
2018-12-11T00:03:31.909Z,2.00
2018-12-11T00:04:31.904Z,1.70
2018-12-11T00:05:31.886Z,2.00
2018-12-11T00:06:31.867Z,2.00
2018-12-11T00:07:31.858Z,1.80
2018-12-11T00:08:31.856Z,1.90
2018-12-11T00:09:31.848Z,1.90
2018-12-11T00:10:31.823Z,2.10
2018-12-11T00:11:33.961Z,1.80
2018-12-11T00:12:31.801Z,1.80
2018-12-11T00:13:31.790Z,2.30
2018-12-11T00:14:31.797Z,1.80
2018-12-11T00:15:31.781Z,2.00
2018-12-11T00:16:31.757Z,2.00
2018-12-11T00:17:31.746Z,1.90
2018-12-11T00:18:31.735Z,1.90
2018-12-11T00:19:31.737Z,1.80
2018-12-11T00:20:31.715Z,2.00
2018-12-11T00:21:31.703Z,1.90
2018-12-11T00:22:31.691Z,2.00
2018-12-11T00:23:31.680Z,1.80
2018-12-11T00:24:31.681Z,1.70
2018-12-11T00:25:31.659Z,1.80
2018-12-11T00:26:31.649Z,1.80
2018-12-11T00:27:31.634Z,1.90
2018-12-11T00:28:31.626Z,1.90
2018-12-11T00:29:31.631Z,2.10
2018-12-11T00:30:31.603Z,2.00
2018-12-11T00:31:31.595Z,1.80
2018-12-11T00:32:31.582Z,2.10
2018-12-11T00:33:31.568Z,2.10
2018-12-11T00:34:31.570Z,1.90
2018-12-11T00:35:31.548Z,1.80
2018-12-11T00:36:31.539Z,2.20
2018-12-11T00:37:31.524Z,1.70
2018-12-11T00:38:31.516Z,1.70
2018-12-11T00:39:31.515Z,1.90
2018-12-11T00:40:31.491Z,1.90
2018-12-11T00:41:31.481Z,1.90
2018-12-11T00:42:31.470Z,1.90
2018-12-11T00:43:31.466Z,1.60
2018-12-11T00:44:31.460Z,2.00
2018-12-11T00:45:31.436Z,1.90
2018-12-11T00:46:31.426Z,1.80
2018-12-11T00:47:31.415Z,1.70
2018-12-11T00:48:31.411Z,2.10
2018-12-11T00:49:31.404Z,1.90
2018-12-11T00:50:31.382Z,1.80
2018-12-11T00:51:31.371Z,2.00
2018-12-11T00:52:31.359Z,2.10
2018-12-11T00:53:31.351Z,1.70
2018-12-11T00:54:31.353Z,2.20
2018-12-11T00:55:31.328Z,2.10
2018-12-11T00:56:31.315Z,2.00
2018-12-11T00:57:31.304Z,2.10
2018-12-11T00:58:31.295Z,1.80
2018-12-11T00:59:31.297Z,2.00
2018-12-11T01:00:31.271Z,2.40
2018-12-11T01:01:31.262Z,1.90
2018-12-11T01:02:31.248Z,2.10
2018-12-11T01:03:31.239Z,2.40
2018-12-11T01:04:31.240Z,2.20
2018-12-11T01:05:31.219Z,2.40
2018-12-11T01:06:31.205Z,2.00
2018-12-11T01:07:31.194Z,2.50
2018-12-11T01:08:31.190Z,2.10
2018-12-11T01:09:31.185Z,2.10
2018-12-11T01:10:31.167Z,1.90
2018-12-11T01:11:31.152Z,2.30
2018-12-11T01:12:31.138Z,2.20
2018-12-11T01:13:31.129Z,2.10
2018-12-11T01:14:31.129Z,1.80
2018-12-11T01:15:31.105Z,2.00
2018-12-11T01:16:31.097Z,2.60
2018-12-11T01:17:31.086Z,2.20
2018-12-11T01:18:31.074Z,2.40
2018-12-11T01:19:31.073Z,2.30
2018-12-11T01:20:31.049Z,2.20
2018-12-11T01:21:31.040Z,2.10
2018-12-11T01:22:31.035Z,1.70
2018-12-11T01:23:31.016Z,2.20
2018-12-11T01:24:31.019Z,2.30
2018-12-11T01:25:30.995Z,2.20
2018-12-11T01:26:30.984Z,1.90
2018-12-11T01:27:31.009Z,2.50
2018-12-11T01:28:30.965Z,2.90
2018-12-11T01:29:30.965Z,2.20
2018-12-11T01:30:30.940Z,2.00
2018-12-11T01:31:30.928Z,2.10
2018-12-11T01:32:30.923Z,1.90
2018-12-11T01:33:30.906Z,2.00
2018-12-11T01:34:30.936Z,2.40
2018-12-11T01:35:30.885Z,2.40
2018-12-11T01:36:30.870Z,2.60
2018-12-11T01:37:30.862Z,2.50
2018-12-11T01:38:30.852Z,2.10
2018-12-11T01:39:30.842Z,2.20
2018-12-11T01:40:30.843Z,1.90
2018-12-11T01:41:30.819Z,2.30
2018-12-11T01:42:30.809Z,2.30
2018-12-11T01:43:30.795Z,2.30
2018-12-11T01:44:30.785Z,2.40
2018-12-11T01:45:30.787Z,2.40
2018-12-11T01:46:30.763Z,2.10
2018-12-11T01:47:30.749Z,2.20
2018-12-11T01:48:30.742Z,2.80
2018-12-11T01:49:30.731Z,2.20
2018-12-11T01:50:30.729Z,2.40
2018-12-11T01:51:30.708Z,2.10
2018-12-11T01:52:30.699Z,2.00
2018-12-11T01:53:30.685Z,2.50
2018-12-11T01:54:30.674Z,2.40
2018-12-11T01:55:30.676Z,2.10
2018-12-11T01:56:30.666Z,2.00
2018-12-11T01:57:30.642Z,1.80
2018-12-11T01:58:30.631Z,2.50
2018-12-11T01:59:30.619Z,2.20
2018-12-11T02:00:30.620Z,2.40
2018-12-11T02:01:30.602Z,2.00
2018-12-11T02:02:30.587Z,2.10
2018-12-11T02:03:32.001Z,1.90
2018-12-11T02:04:30.567Z,2.10
2018-12-11T02:05:30.568Z,2.30
2018-12-11T02:06:30.543Z,2.50
2018-12-11T02:07:30.539Z,2.30
2018-12-11T02:08:30.520Z,2.60
2018-12-11T02:09:30.515Z,2.20
2018-12-11T02:10:30.509Z,2.40
2018-12-11T02:11:30.488Z,2.40
2018-12-11T02:12:30.478Z,2.10
2018-12-11T02:13:30.472Z,2.40
2018-12-11T02:14:30.454Z,2.50
2018-12-11T02:15:30.454Z,2.40
2018-12-11T02:16:30.432Z,2.50
2018-12-11T02:17:30.423Z,2.30
2018-12-11T02:18:30.410Z,2.20
2018-12-11T02:19:30.401Z,2.50
2018-12-11T02:20:30.401Z,2.40
2018-12-11T02:21:30.379Z,2.10
2018-12-11T02:22:30.367Z,2.20
2018-12-11T02:23:30.355Z,2.50
2018-12-11T02:24:30.414Z,2.40
2018-12-11T02:25:30.363Z,2.40
2018-12-11T02:26:30.330Z,2.30
2018-12-11T02:27:30.313Z,2.30
2018-12-11T02:28:30.300Z,2.20
2018-12-11T02:29:30.291Z,2.50
2018-12-11T02:30:30.290Z,2.20
2018-12-11T02:31:30.270Z,2.60
2018-12-11T02:32:30.255Z,2.40
2018-12-11T02:33:30.247Z,2.30
2018-12-11T02:34:30.236Z,2.60
2018-12-11T02:35:30.233Z,2.30
2018-12-11T02:36:30.212Z,2.60
2018-12-11T02:37:30.201Z,2.40
2018-12-11T02:38:30.190Z,2.50
2018-12-11T02:39:30.199Z,2.30
2018-12-11T02:40:30.182Z,2.40
2018-12-11T02:41:30.162Z,2.50
2018-12-11T02:42:30.149Z,2.30
2018-12-11T02:43:30.140Z,2.60
2018-12-11T02:44:30.126Z,2.60
2018-12-11T02:45:30.125Z,2.30
2018-12-11T02:46:30.106Z,2.40
2018-12-11T02:47:30.093Z,2.60
2018-12-11T02:48:30.081Z,2.60
2018-12-11T02:49:30.070Z,2.00
2018-12-11T02:50:30.077Z,2.80
2018-12-11T02:51:30.054Z,2.50
2018-12-11T02:52:30.041Z,2.60
2018-12-11T02:53:30.025Z,2.50
2018-12-11T02:54:30.019Z,2.40
2018-12-11T02:55:30.034Z,2.60
2018-12-11T02:56:29.993Z,2.30
2018-12-11T02:57:29.980Z,2.50
2018-12-11T02:58:29.972Z,2.60
2018-12-11T02:59:29.959Z,2.60
2018-12-11T03:00:29.949Z,2.60
2018-12-11T03:01:29.947Z,2.20
2018-12-11T03:02:29.926Z,2.50
2018-12-11T03:03:29.990Z,2.60
2018-12-11T03:04:29.907Z,2.50
2018-12-11T03:05:29.892Z,2.40
2018-12-11T03:06:29.898Z,2.20
2018-12-11T03:07:29.877Z,2.90
2018-12-11T03:08:29.861Z,2.60
2018-12-11T03:09:29.852Z,2.10
2018-12-11T03:10:29.837Z,2.80
2018-12-11T03:11:29.838Z,2.40
2018-12-11T03:12:29.815Z,2.30
2018-12-11T03:13:29.803Z,2.80
2018-12-11T03:14:29.820Z,2.10
2018-12-11T03:15:29.783Z,2.40
2018-12-11T03:16:29.784Z,2.60
2018-12-11T03:17:29.759Z,2.50
2018-12-11T03:18:29.749Z,2.60
2018-12-11T03:19:29.739Z,2.30
2018-12-11T03:20:29.727Z,2.30
2018-12-11T03:21:29.727Z,2.20
2018-12-11T03:22:29.704Z,2.30
2018-12-11T03:23:29.692Z,2.50
2018-12-11T03:24:29.682Z,2.70
2018-12-11T03:25:29.672Z,2.30
2018-12-11T03:26:29.669Z,2.00
2018-12-11T03:27:29.653Z,2.60
2018-12-11T03:28:29.637Z,2.30
2018-12-11T03:29:29.626Z,2.50
2018-12-11T03:30:29.620Z,2.80
2018-12-11T03:31:29.616Z,2.10
2018-12-11T03:32:29.603Z,2.50
2018-12-11T03:33:29.582Z,2.70
2018-12-11T03:34:29.571Z,2.50
2018-12-11T03:35:29.561Z,2.50
2018-12-11T03:36:29.563Z,2.30
2018-12-11T03:37:29.542Z,2.50
2018-12-11T03:38:29.526Z,2.70
2018-12-11T03:39:29.516Z,2.10
2018-12-11T03:40:29.506Z,2.20
2018-12-11T03:41:29.506Z,2.20
2018-12-11T03:42:29.486Z,2.50
2018-12-11T03:43:29.471Z,2.20
2018-12-11T03:44:29.461Z,2.20
2018-12-11T03:45:29.453Z,2.20
2018-12-11T03:46:29.454Z,2.70
2018-12-11T03:47:29.428Z,2.40
2018-12-11T03:48:29.427Z,2.00
2018-12-11T03:49:29.406Z,2.20
2018-12-11T03:50:29.408Z,2.50
2018-12-11T03:51:29.395Z,2.20
2018-12-11T03:52:29.372Z,1.70
2018-12-11T03:53:29.364Z,2.20
2018-12-11T03:54:29.352Z,2.10
2018-12-11T03:55:29.339Z,2.30
2018-12-11T03:56:29.342Z,2.20
2018-12-11T03:57:29.321Z,1.90
2018-12-11T03:58:29.308Z,1.90
2018-12-11T03:59:29.302Z,2.10
2018-12-11T04:00:29.283Z,2.30
2018-12-11T04:01:29.308Z,1.90
2018-12-11T04:02:29.261Z,2.30
2018-12-11T04:03:29.247Z,2.10
2018-12-11T04:04:29.240Z,1.90
2018-12-11T04:05:29.229Z,1.80
2018-12-11T04:06:29.234Z,2.70
2018-12-11T04:07:29.207Z,2.00
2018-12-11T04:08:29.198Z,2.00
2018-12-11T04:09:29.185Z,2.20
2018-12-11T04:10:29.173Z,2.30
2018-12-11T04:11:29.177Z,2.40
2018-12-11T04:12:29.151Z,2.60
2018-12-11T04:13:29.140Z,2.20
2018-12-11T04:14:29.133Z,2.10
2018-12-11T04:15:29.118Z,2.10
2018-12-11T04:16:29.124Z,1.80
2018-12-11T04:17:29.097Z,2.10
2018-12-11T04:18:29.084Z,2.30
2018-12-11T04:19:29.076Z,2.10
2018-12-11T04:20:29.076Z,1.90
2018-12-11T04:21:29.065Z,1.80
2018-12-11T04:22:29.043Z,2.00
2018-12-11T04:23:29.037Z,2.40
2018-12-11T04:24:29.019Z,2.30
2018-12-11T04:25:29.008Z,2.10
2018-12-11T04:26:29.010Z,2.40
2018-12-11T04:27:29.002Z,2.20
2018-12-11T04:28:28.980Z,2.30
2018-12-11T04:29:28.964Z,1.60
2018-12-11T04:30:28.951Z,2.40
2018-12-11T04:31:28.943Z,2.10
2018-12-11T04:32:28.942Z,2.10
2018-12-11T04:33:28.926Z,2.20
2018-12-11T04:34:28.909Z,1.70
2018-12-11T04:35:28.901Z,2.30
2018-12-11T04:36:28.935Z,2.10
2018-12-11T04:37:28.888Z,2.60
2018-12-11T04:38:28.867Z,2.20
2018-12-11T04:39:33.935Z,2.20
2018-12-11T04:40:29.839Z,2.30
2018-12-11T04:41:28.830Z,2.20
2018-12-11T04:42:28.832Z,2.00
2018-12-11T04:43:28.809Z,2.60
2018-12-11T04:44:28.799Z,2.00
2018-12-11T04:45:29.423Z,2.40
2018-12-11T04:46:28.774Z,2.30
2018-12-11T04:47:28.776Z,2.00
2018-12-11T04:48:28.753Z,2.30
2018-12-11T04:49:28.741Z,2.00
2018-12-11T04:50:28.729Z,2.20
2018-12-11T04:51:28.719Z,2.00
2018-12-11T04:52:28.719Z,1.70
2018-12-11T04:53:28.701Z,2.10
2018-12-11T04:54:28.686Z,2.10
2018-12-11T04:55:28.675Z,2.30
2018-12-11T04:56:28.668Z,1.90
2018-12-11T04:57:28.665Z,2.10
2018-12-11T04:58:28.643Z,2.00
2018-12-11T04:59:28.632Z,1.90
2018-12-11T05:00:28.619Z,2.00
2018-12-11T05:01:28.608Z,2.20
2018-12-11T05:02:28.610Z,2.00
2018-12-11T05:03:28.591Z,2.30
2018-12-11T05:04:28.576Z,2.10
2018-12-11T05:05:28.566Z,1.80
2018-12-11T05:06:28.553Z,1.70
2018-12-11T05:07:28.554Z,1.60
2018-12-11T05:08:28.534Z,2.10
2018-12-11T05:09:28.520Z,1.60
2018-12-11T05:10:28.509Z,2.00
2018-12-11T05:11:28.497Z,2.10
2018-12-11T05:12:28.497Z,1.90
2018-12-11T05:13:28.476Z,1.70
2018-12-11T05:14:28.469Z,1.80
2018-12-11T05:15:28.453Z,2.20
2018-12-11T05:16:28.443Z,1.90
2018-12-11T05:17:28.444Z,1.90
2018-12-11T05:18:28.420Z,2.00
2018-12-11T05:19:28.417Z,1.80
2018-12-11T05:20:28.399Z,2.30
2018-12-11T05:21:28.387Z,1.60
2018-12-11T05:22:28.388Z,1.90
2018-12-11T05:23:28.365Z,1.50
2018-12-11T05:24:28.355Z,1.40
2018-12-11T05:25:28.344Z,1.70
2018-12-11T05:26:28.331Z,1.60
2018-12-11T05:27:28.375Z,1.70
2018-12-11T05:28:28.313Z,2.20
2018-12-11T05:29:28.299Z,1.70
2018-12-11T05:30:28.287Z,1.80
2018-12-11T05:31:28.283Z,1.70
2018-12-11T05:32:28.266Z,1.60
2018-12-11T05:33:28.269Z,1.30
2018-12-11T05:34:28.244Z,1.40
2018-12-11T05:35:28.233Z,1.80
2018-12-11T05:36:28.223Z,1.50
2018-12-11T05:37:28.210Z,1.20
2018-12-11T05:38:28.214Z,1.50
2018-12-11T05:39:28.188Z,1.80
2018-12-11T05:40:28.178Z,1.80
2018-12-11T05:41:28.168Z,1.80
2018-12-11T05:42:28.157Z,1.60
2018-12-11T05:43:28.163Z,1.70
2018-12-11T05:44:28.135Z,1.50
2018-12-11T05:45:28.143Z,1.60
2018-12-11T05:46:28.112Z,1.50
2018-12-11T05:47:28.102Z,1.90
2018-12-11T05:48:28.100Z,1.40
2018-12-11T05:49:28.080Z,1.50
2018-12-11T05:50:28.067Z,1.30
2018-12-11T05:51:28.057Z,1.50
2018-12-11T05:52:28.045Z,1.40
2018-12-11T05:53:28.046Z,1.50
2018-12-11T05:54:28.022Z,1.20
2018-12-11T05:55:28.012Z,1.80
2018-12-11T05:56:28.000Z,1.90
2018-12-11T05:57:27.990Z,1.70
2018-12-11T05:58:27.990Z,1.70
2018-12-11T05:59:27.968Z,1.40
2018-12-11T06:00:27.956Z,1.30
2018-12-11T06:01:27.948Z,1.50
2018-12-11T06:02:27.949Z,1.80
2018-12-11T06:03:27.936Z,1.60
2018-12-11T06:04:27.914Z,1.40
2018-12-11T06:05:27.906Z,1.80
2018-12-11T06:06:27.898Z,1.40
2018-12-11T06:07:27.881Z,2.00
2018-12-11T06:08:27.898Z,1.60
2018-12-11T06:09:27.858Z,1.60
2018-12-11T06:10:27.854Z,1.70
2018-12-11T06:11:27.835Z,1.60
2018-12-11T06:12:27.824Z,1.50
2018-12-11T06:13:27.813Z,1.40
2018-12-11T06:14:27.816Z,1.80
2018-12-11T06:15:27.794Z,1.70
2018-12-11T06:16:27.806Z,1.40
2018-12-11T06:17:27.772Z,2.00
2018-12-11T06:18:27.759Z,1.60
2018-12-11T06:19:27.760Z,1.70
2018-12-11T06:20:27.736Z,1.50
2018-12-11T06:21:27.726Z,1.40
2018-12-11T06:22:27.716Z,1.80
2018-12-11T06:23:27.702Z,1.30
2018-12-11T06:24:27.700Z,1.70
2018-12-11T06:25:27.680Z,1.50
2018-12-11T06:26:27.669Z,1.50
2018-12-11T06:27:27.658Z,1.40
2018-12-11T06:28:27.645Z,1.60
2018-12-11T06:29:27.650Z,1.80
2018-12-11T06:30:27.625Z,1.70
2018-12-11T06:31:27.611Z,2.00
2018-12-11T06:32:27.604Z,1.80
2018-12-11T06:33:27.590Z,2.10
2018-12-11T06:34:27.597Z,1.80
2018-12-11T06:35:27.569Z,1.90
2018-12-11T06:36:27.560Z,2.10
2018-12-11T06:37:27.556Z,1.70
2018-12-11T06:38:27.538Z,2.10
2018-12-11T06:39:27.536Z,1.70
2018-12-11T06:40:27.514Z,1.50
2018-12-11T06:41:27.506Z,1.60
2018-12-11T06:42:27.491Z,2.00
2018-12-11T06:43:27.483Z,1.60
2018-12-11T06:44:27.481Z,1.80
2018-12-11T06:45:27.457Z,1.70
2018-12-11T06:46:27.446Z,1.80
2018-12-11T06:47:27.436Z,1.70
2018-12-11T06:48:27.424Z,1.80
2018-12-11T06:49:27.426Z,1.50
2018-12-11T06:50:27.404Z,1.60
2018-12-11T06:51:27.408Z,1.40
2018-12-11T06:52:27.380Z,1.50
2018-12-11T06:53:27.375Z,1.50
2018-12-11T06:54:27.369Z,1.40
2018-12-11T06:55:27.349Z,1.70
2018-12-11T06:56:27.338Z,1.30
2018-12-11T06:57:27.326Z,1.30
2018-12-11T06:58:27.314Z,1.30
2018-12-11T06:59:27.341Z,1.50
2018-12-11T07:00:27.293Z,1.50
2018-12-11T07:01:27.281Z,1.20
2018-12-11T07:02:27.271Z,1.40
2018-12-11T07:03:27.259Z,1.60
2018-12-11T07:04:27.248Z,1.30
2018-12-11T07:05:27.249Z,1.30
2018-12-11T07:06:27.226Z,1.40
2018-12-11T07:07:27.215Z,1.40
2018-12-11T07:08:27.204Z,1.20
2018-12-11T07:09:27.192Z,1.30
2018-12-11T07:10:27.195Z,1.10
2018-12-11T07:11:27.210Z,1.20
2018-12-11T07:12:27.163Z,1.40
2018-12-11T07:13:27.149Z,1.60
2018-12-11T07:14:27.138Z,1.60
2018-12-11T07:15:27.142Z,1.40
2018-12-11T07:16:27.118Z,1.30
2018-12-11T07:17:27.107Z,1.40
2018-12-11T07:18:27.093Z,1.40
2018-12-11T07:19:27.084Z,1.60
2018-12-11T07:20:27.084Z,1.40
2018-12-11T07:21:27.062Z,1.70
2018-12-11T07:22:27.051Z,1.20
2018-12-11T07:23:27.039Z,1.10
2018-12-11T07:24:27.031Z,1.30
2018-12-11T07:25:27.045Z,1.20
2018-12-11T07:26:27.004Z,1.10
2018-12-11T07:27:26.995Z,1.20
2018-12-11T07:28:26.983Z,1.40
2018-12-11T07:29:26.975Z,1.20
2018-12-11T07:30:26.964Z,1.00
2018-12-11T07:31:26.963Z,1.10
2018-12-11T07:32:26.942Z,1.50
2018-12-11T07:33:26.932Z,1.10
2018-12-11T07:34:26.917Z,1.10
2018-12-11T07:35:26.906Z,1.10
2018-12-11T07:36:26.906Z,1.10
2018-12-11T07:37:26.885Z,1.50
2018-12-11T07:38:26.877Z,1.50
2018-12-11T07:39:26.861Z,1.00
2018-12-11T07:40:26.854Z,1.40
2018-12-11T07:41:26.855Z,1.00
2018-12-11T07:42:26.827Z,1.10
2018-12-11T07:43:26.817Z,1.00
2018-12-11T07:44:26.809Z,1.10
2018-12-11T07:45:26.796Z,1.10
2018-12-11T07:46:26.787Z,1.20
2018-12-11T07:47:26.784Z,1.20
2018-12-11T07:48:26.766Z,0.80
2018-12-11T07:49:26.750Z,1.10
2018-12-11T07:50:26.741Z,1.00
2018-12-11T07:51:26.749Z,1.10
2018-12-11T07:52:26.718Z,1.60
2018-12-11T07:53:26.707Z,1.30
2018-12-11T07:54:26.696Z,1.20
2018-12-11T07:55:26.688Z,1.50
2018-12-11T07:56:26.685Z,1.50
2018-12-11T07:57:26.664Z,1.30
2018-12-11T07:58:26.659Z,1.10
2018-12-11T07:59:26.641Z,1.20
2018-12-11T08:00:26.629Z,1.30
2018-12-11T08:01:26.631Z,1.10
2018-12-11T08:02:26.608Z,1.10
2018-12-11T08:03:26.599Z,0.80
2018-12-11T08:04:27.437Z,1.00
2018-12-11T08:05:26.575Z,1.30
2018-12-11T08:06:26.570Z,1.20
2018-12-11T08:07:26.565Z,0.90
2018-12-11T08:08:26.541Z,1.10
2018-12-11T08:09:26.531Z,0.90
2018-12-11T08:10:26.520Z,0.90
2018-12-11T08:11:26.523Z,1.00
2018-12-11T08:12:26.571Z,0.90
2018-12-11T08:13:26.494Z,1.30
2018-12-11T08:14:26.475Z,1.00
2018-12-11T08:15:26.464Z,0.80
2018-12-11T08:16:26.451Z,1.30
2018-12-11T08:17:26.457Z,0.90
2018-12-11T08:18:26.431Z,1.00
2018-12-11T08:19:26.457Z,1.10
2018-12-11T08:20:26.408Z,1.20
2018-12-11T08:21:26.413Z,1.30
2018-12-11T08:22:26.392Z,1.40
2018-12-11T08:23:26.390Z,1.30
2018-12-11T08:24:26.370Z,1.20
2018-12-11T08:25:26.353Z,1.20
2018-12-11T08:26:26.342Z,1.40
2018-12-11T08:27:26.346Z,1.30
2018-12-11T08:28:26.321Z,1.60
2018-12-11T08:29:26.318Z,1.40
2018-12-11T08:30:26.304Z,1.50
2018-12-11T08:31:26.286Z,1.10
2018-12-11T08:32:26.290Z,1.70
2018-12-11T08:33:26.266Z,1.30
2018-12-11T08:34:26.254Z,1.10
2018-12-11T08:35:26.243Z,1.00
2018-12-11T08:36:26.236Z,1.30
2018-12-11T08:37:26.262Z,1.00
2018-12-11T08:38:26.212Z,1.10
2018-12-11T08:39:27.127Z,1.00
2018-12-11T08:40:26.188Z,1.40
2018-12-11T08:41:26.233Z,1.00
2018-12-11T08:42:26.167Z,1.30
2018-12-11T08:43:26.182Z,1.60
2018-12-11T08:44:26.145Z,1.30
2018-12-11T08:45:26.136Z,1.70
2018-12-11T08:46:26.120Z,1.30
2018-12-11T08:47:26.213Z,1.50
2018-12-11T08:48:26.462Z,1.50
2018-12-11T08:49:26.096Z,1.30
2018-12-11T08:50:26.078Z,1.30
2018-12-11T08:51:26.070Z,1.10
2018-12-11T08:52:26.056Z,1.60
2018-12-11T08:53:26.088Z,1.30
2018-12-11T08:54:26.038Z,1.40
2018-12-11T08:55:26.024Z,1.60
2018-12-11T08:56:26.009Z,1.60
2018-12-11T08:57:26.008Z,1.40
2018-12-11T08:58:26.011Z,1.50
2018-12-11T08:59:25.980Z,1.30
2018-12-11T09:00:25.983Z,1.50
2018-12-11T09:01:25.961Z,1.30
2018-12-11T09:02:25.946Z,1.40
2018-12-11T09:03:26.117Z,1.10
2018-12-11T09:04:25.938Z,1.20
2018-12-11T09:05:25.947Z,1.30
2018-12-11T09:06:25.903Z,1.00
2018-12-11T09:07:25.973Z,1.20
2018-12-11T09:08:25.897Z,1.10
2018-12-11T09:09:25.874Z,1.30
2018-12-11T09:10:25.857Z,1.20
2018-12-11T09:11:25.849Z,1.20
2018-12-11T09:12:25.841Z,1.20
2018-12-11T09:13:25.839Z,1.30
2018-12-11T09:14:25.817Z,1.40
2018-12-11T09:15:25.802Z,1.40
2018-12-11T09:16:25.794Z,1.50
2018-12-11T09:17:25.780Z,1.60
2018-12-11T09:18:25.785Z,1.50
2018-12-11T09:19:25.758Z,1.50
2018-12-11T09:20:25.752Z,1.70
2018-12-11T09:21:25.741Z,1.40
2018-12-11T09:22:25.726Z,1.60
2018-12-11T09:23:25.758Z,1.50
2018-12-11T09:24:25.851Z,1.20
2018-12-11T09:25:25.695Z,1.30
2018-12-11T09:26:25.683Z,1.10
2018-12-11T09:27:25.671Z,1.10
2018-12-11T09:28:25.661Z,1.50
2018-12-11T09:29:25.682Z,1.50
2018-12-11T09:30:25.641Z,1.30
2018-12-11T09:31:25.634Z,1.80
2018-12-11T09:32:25.617Z,1.40
2018-12-11T09:33:25.606Z,1.80
2018-12-11T09:34:25.607Z,1.30
2018-12-11T09:35:25.583Z,1.30
2018-12-11T09:36:25.572Z,1.40
2018-12-11T09:37:25.562Z,1.40
2018-12-11T09:38:25.550Z,1.10
2018-12-11T09:39:25.575Z,1.30
2018-12-11T09:40:25.599Z,1.10
2018-12-11T09:41:25.516Z,1.10
2018-12-11T09:42:28.121Z,1.10
2018-12-11T09:43:25.494Z,1.10
2018-12-11T09:44:25.592Z,1.10
2018-12-11T09:45:25.472Z,1.10
2018-12-11T09:46:25.461Z,0.90
2018-12-11T09:47:25.449Z,1.00
2018-12-11T09:48:25.438Z,1.30
2018-12-11T09:49:25.441Z,1.10
2018-12-11T09:50:25.418Z,0.90
2018-12-11T09:51:25.407Z,1.00
2018-12-11T09:52:25.395Z,1.30
2018-12-11T09:53:25.383Z,1.10
2018-12-11T09:54:25.384Z,1.00
2018-12-11T09:55:25.363Z,1.00
2018-12-11T09:56:25.429Z,0.80
2018-12-11T09:57:25.339Z,0.80
2018-12-11T09:58:25.328Z,1.00
2018-12-11T09:59:25.329Z,1.00
2018-12-11T10:00:27.192Z,1.10
2018-12-11T10:01:25.296Z,0.90
2018-12-11T10:02:25.286Z,0.90
2018-12-11T10:03:25.279Z,1.00
2018-12-11T10:04:25.274Z,1.00
2018-12-11T10:05:25.252Z,1.10
2018-12-11T10:06:25.241Z,0.90
2018-12-11T10:07:25.230Z,1.10
2018-12-11T10:08:25.357Z,1.30
2018-12-11T10:09:25.221Z,1.00
2018-12-11T10:10:25.195Z,1.10
2018-12-11T10:11:25.185Z,1.20
2018-12-11T10:12:25.177Z,1.20
2018-12-11T10:13:25.163Z,1.20
2018-12-11T10:14:25.462Z,1.30
2018-12-11T10:15:25.143Z,1.20
2018-12-11T10:16:25.153Z,1.10
2018-12-11T10:17:25.118Z,1.30
2018-12-11T10:18:25.113Z,1.00
2018-12-11T10:19:25.097Z,0.90
2018-12-11T10:20:25.097Z,1.10
2018-12-11T10:21:25.074Z,1.10
2018-12-11T10:22:25.066Z,1.10
2018-12-11T10:23:25.055Z,1.00
2018-12-11T10:24:25.043Z,1.10
2018-12-11T10:25:25.041Z,0.90
2018-12-11T10:26:25.019Z,1.10
2018-12-11T10:27:25.013Z,1.00
2018-12-11T10:28:25.001Z,0.90
2018-12-11T10:29:24.988Z,1.00
2018-12-11T10:30:24.987Z,1.10
2018-12-11T10:31:24.965Z,1.00
2018-12-11T10:32:24.953Z,1.10
2018-12-11T10:33:24.942Z,1.00
2018-12-11T10:34:24.932Z,1.00
2018-12-11T10:35:24.936Z,1.10
2018-12-11T10:36:24.914Z,1.00
2018-12-11T10:37:24.898Z,1.30
2018-12-11T10:38:24.886Z,1.30
2018-12-11T10:39:24.873Z,1.30
2018-12-11T10:40:24.876Z,1.30
2018-12-11T10:41:24.853Z,1.30
2018-12-11T10:42:24.845Z,1.20
2018-12-11T10:43:24.831Z,1.30
2018-12-11T10:44:24.819Z,1.30
2018-12-11T10:45:24.823Z,1.10
2018-12-11T10:46:24.796Z,1.50
2018-12-11T10:47:24.788Z,1.10
2018-12-11T10:48:24.778Z,0.90
2018-12-11T10:49:24.763Z,1.20
2018-12-11T10:50:24.804Z,1.10
2018-12-11T10:51:24.742Z,1.20
2018-12-11T10:52:24.731Z,1.10
2018-12-11T10:53:24.722Z,1.50
2018-12-11T10:54:24.709Z,1.10
2018-12-11T10:55:24.699Z,1.10
2018-12-11T10:56:24.698Z,0.90
2018-12-11T10:57:24.676Z,1.20
2018-12-11T10:58:24.664Z,1.20
2018-12-11T10:59:24.658Z,1.30
2018-12-11T11:00:24.643Z,1.40
2018-12-11T11:01:24.654Z,1.20
2018-12-11T11:02:24.621Z,1.40
2018-12-11T11:03:24.609Z,1.20
2018-12-11T11:04:24.605Z,1.30
2018-12-11T11:05:24.586Z,1.10
2018-12-11T11:06:24.587Z,1.00
2018-12-11T11:07:24.568Z,1.20
2018-12-11T11:08:24.555Z,1.10
2018-12-11T11:09:24.557Z,1.30
2018-12-11T11:10:24.548Z,1.20
2018-12-11T11:11:24.537Z,1.10
2018-12-11T11:12:24.509Z,1.00
2018-12-11T11:13:24.514Z,1.00
2018-12-11T11:14:25.211Z,1.00
2018-12-11T11:15:24.516Z,0.90
2018-12-11T11:16:24.478Z,1.10
2018-12-11T11:17:24.455Z,1.00
2018-12-11T11:18:24.444Z,1.00
2018-12-11T11:19:24.435Z,1.20
2018-12-11T11:20:24.421Z,1.10
2018-12-11T11:21:24.432Z,0.90
2018-12-11T11:22:24.401Z,0.80
2018-12-11T11:23:24.388Z,0.80
2018-12-11T11:24:24.378Z,0.90
2018-12-11T11:25:24.368Z,1.00
2018-12-11T11:26:24.370Z,1.10
2018-12-11T11:27:24.955Z,1.00
2018-12-11T11:28:24.332Z,0.90
2018-12-11T11:29:24.322Z,1.00
2018-12-11T11:30:24.311Z,1.10
2018-12-11T11:31:24.312Z,0.90
2018-12-11T11:32:24.301Z,1.10
2018-12-11T11:33:24.278Z,1.00
2018-12-11T11:34:24.269Z,0.90
2018-12-11T11:35:24.256Z,1.10
2018-12-11T11:36:24.256Z,1.10
2018-12-11T11:37:24.234Z,1.10
2018-12-11T11:38:24.223Z,1.00
2018-12-11T11:39:24.212Z,1.10
2018-12-11T11:40:24.204Z,1.10
2018-12-11T11:41:24.265Z,0.90
2018-12-11T11:42:24.180Z,1.10
2018-12-11T11:43:24.173Z,0.90
2018-12-11T11:44:24.956Z,1.10
2018-12-11T11:45:24.146Z,1.00
2018-12-11T11:46:24.139Z,0.90
2018-12-11T11:47:24.137Z,0.90
2018-12-11T11:48:24.170Z,0.90
2018-12-11T11:49:24.102Z,1.10
2018-12-11T11:50:24.091Z,1.10
2018-12-11T11:51:24.081Z,1.20
2018-12-11T11:52:24.081Z,1.40
2018-12-11T11:53:24.059Z,1.50
2018-12-11T11:54:24.047Z,1.50
2018-12-11T11:55:24.037Z,1.70
2018-12-11T11:56:24.024Z,1.00
2018-12-11T11:57:29.547Z,1.00
2018-12-11T11:58:25.005Z,1.30
2018-12-11T11:59:23.994Z,1.30
2018-12-11T12:00:23.982Z,1.40
2018-12-11T12:01:23.972Z,1.30
2018-12-11T12:02:23.970Z,1.40
2018-12-11T12:03:23.950Z,1.30
2018-12-11T12:04:23.937Z,1.10
2018-12-11T12:05:23.927Z,1.20
2018-12-11T12:06:23.914Z,1.20
2018-12-11T12:07:23.918Z,1.60
2018-12-11T12:08:23.892Z,1.80
2018-12-11T12:09:23.881Z,1.60
2018-12-11T12:10:23.870Z,1.70
2018-12-11T12:11:23.866Z,1.20
2018-12-11T12:12:23.862Z,1.00
2018-12-11T12:13:23.846Z,1.20
2018-12-11T12:14:23.826Z,1.20
2018-12-11T12:15:23.815Z,1.30
2018-12-11T12:16:23.805Z,1.50
2018-12-11T12:17:23.809Z,1.50
2018-12-11T12:18:23.784Z,1.70
2018-12-11T12:19:23.773Z,2.00
2018-12-11T12:20:23.759Z,2.30
2018-12-11T12:21:23.749Z,2.10
2018-12-11T12:22:23.749Z,2.40
2018-12-11T12:23:23.732Z,2.50
2018-12-11T12:24:23.714Z,2.10
2018-12-11T12:25:23.706Z,2.00
2018-12-11T12:26:23.694Z,1.80
2018-12-11T12:27:23.713Z,1.90
2018-12-11T12:28:23.673Z,2.00
2018-12-11T12:29:23.661Z,1.70
2018-12-11T12:30:23.652Z,2.00
2018-12-11T12:31:23.638Z,1.90
2018-12-11T12:32:23.628Z,1.90
2018-12-11T12:33:23.627Z,1.80
2018-12-11T12:34:23.607Z,1.90
2018-12-11T12:35:23.596Z,1.80
2018-12-11T12:36:23.585Z,2.00
2018-12-11T12:37:23.573Z,1.70
2018-12-11T12:38:23.573Z,1.70
2018-12-11T12:39:23.548Z,1.70
2018-12-11T12:40:23.539Z,1.80
2018-12-11T12:41:23.529Z,1.80
2018-12-11T12:42:23.519Z,1.60
2018-12-11T12:43:23.517Z,1.90
2018-12-11T12:44:23.498Z,1.70
2018-12-11T12:45:23.482Z,1.60
2018-12-11T12:46:23.473Z,1.80
2018-12-11T12:47:23.460Z,1.70
2018-12-11T12:48:23.464Z,1.80
2018-12-11T12:49:23.439Z,1.90
2018-12-11T12:50:23.428Z,2.00
2018-12-11T12:51:23.416Z,2.10
2018-12-11T12:52:23.407Z,1.90
2018-12-11T12:53:23.410Z,1.90
2018-12-11T12:54:23.384Z,1.70
2018-12-11T12:55:23.373Z,1.90
2018-12-11T12:56:23.361Z,2.00
2018-12-11T12:57:23.351Z,2.00
2018-12-11T12:58:23.352Z,1.90
2018-12-11T12:59:23.330Z,1.90
2018-12-11T13:00:23.318Z,1.80
2018-12-11T13:01:23.304Z,1.70
2018-12-11T13:02:23.298Z,1.90
2018-12-11T13:03:23.295Z,1.70
2018-12-11T13:04:23.281Z,1.80
2018-12-11T13:05:23.960Z,1.80
2018-12-11T13:06:23.260Z,1.80
2018-12-11T13:07:23.240Z,1.50
2018-12-11T13:08:23.244Z,1.80
2018-12-11T13:09:23.399Z,1.80
2018-12-11T13:10:23.206Z,1.70
2018-12-11T13:11:23.194Z,1.80
2018-12-11T13:12:23.184Z,1.80
2018-12-11T13:13:23.186Z,1.80
2018-12-11T13:14:23.165Z,1.80
2018-12-11T13:15:23.152Z,1.90
2018-12-11T13:16:23.154Z,1.80
2018-12-11T13:17:23.129Z,2.00
2018-12-11T13:18:23.130Z,1.70